Natrona, Wyoming
Current Conditions -  °F | °C
As of 4:53 PM on Tuesday 25 Nov 2014 (Local Time) from KCPR Reporting Station
Overcast Overcast  
Wind Chill: 22°   Ceiling: 4500
Heat Index: 30°   Visibility: 10mi
Dew Point: 25°   Wind: 8mph
Humidity: 82%   Direction: 60°ENE
Pressure: 29.97"   Gusts: NA
Location:  43.03°N, 106.81°W
Report Text: KCPR 252353Z 06007KT 10SM FEW012 BKN045 OVC075 M01/M04 A2997 RMK AO2 SNB19E29 SLP175 P0000 60000 T10111039 10078 21011 51040
Loading
Personal Weather Stations






























Interactive Weather Map New forecast layout! Learn more

10-Day Weather Forecast

Advertisements
Track Severe Weather on mobile